createdAt,value
2022-09-01T00:00:02.638Z,17.38
2022-09-01T00:02:30.571Z,17.36
2022-09-01T00:04:58.494Z,17.33
2022-09-01T00:07:30.822Z,17.29
2022-09-01T00:09:59.597Z,17.36
2022-09-01T00:12:27.741Z,17.33
2022-09-01T00:14:54.623Z,17.23
2022-09-01T00:17:21.899Z,17.30
2022-09-01T00:19:49.382Z,17.13
2022-09-01T00:22:16.570Z,17.29
2022-09-01T00:24:43.426Z,17.27
2022-09-01T00:27:10.284Z,17.27
2022-09-01T00:29:37.097Z,17.19
2022-09-01T00:32:04.860Z,17.28
2022-09-01T00:34:31.830Z,17.19
2022-09-01T00:36:58.770Z,17.13
2022-09-01T00:39:25.793Z,17.23
2022-09-01T00:41:52.791Z,17.07
2022-09-01T00:44:29.609Z,17.16
2022-09-01T00:46:58.439Z,17.10
2022-09-01T00:49:37.058Z,17.09
2022-09-01T00:52:32.525Z,17.08
2022-09-01T00:55:08.825Z,17.06
2022-09-01T00:57:35.864Z,17.13
2022-09-01T01:00:19.005Z,17.12
2022-09-01T01:02:46.439Z,17.07
2022-09-01T01:05:15.344Z,16.96
2022-09-01T01:07:47.497Z,16.97
2022-09-01T01:10:17.704Z,16.98
2022-09-01T01:12:45.216Z,16.68
2022-09-01T01:15:14.239Z,16.66
2022-09-01T01:17:41.366Z,16.85
2022-09-01T01:20:28.716Z,16.85
2022-09-01T01:23:23.631Z,16.67
2022-09-01T01:25:56.442Z,16.87
2022-09-01T01:28:30.978Z,16.74
2022-09-01T01:31:06.179Z,16.90
2022-09-01T01:33:42.685Z,16.99
2022-09-01T01:36:16.004Z,16.92
2022-09-01T01:38:47.745Z,16.89
2022-09-01T01:41:17.627Z,16.89
2022-09-01T01:43:44.418Z,16.84
2022-09-01T01:46:14.368Z,16.69
2022-09-01T01:48:43.046Z,16.80
2022-09-01T01:51:12.116Z,16.84
2022-09-01T01:53:39.506Z,16.75
2022-09-01T01:56:08.972Z,16.81
2022-09-01T01:58:36.046Z,16.80
2022-09-01T02:01:03.541Z,16.79
2022-09-01T02:03:38.409Z,16.90
2022-09-01T02:06:11.824Z,16.84
2022-09-01T02:08:40.713Z,16.78
2022-09-01T02:11:08.975Z,16.76
2022-09-01T02:13:36.019Z,16.73
2022-09-01T02:16:07.723Z,16.84
2022-09-01T02:18:42.748Z,16.87
2022-09-01T02:21:16.428Z,16.91
2022-09-01T02:24:00.998Z,16.81
2022-09-01T02:26:42.913Z,16.80
2022-09-01T02:29:18.988Z,16.85
2022-09-01T02:31:49.919Z,16.82
2022-09-01T02:34:17.993Z,16.73
2022-09-01T02:36:48.732Z,16.69
2022-09-01T02:39:23.534Z,16.69
2022-09-01T02:41:51.360Z,16.67
2022-09-01T02:44:19.939Z,16.56
2022-09-01T02:46:47.633Z,16.44
2022-09-01T02:49:19.836Z,16.58
2022-09-01T02:51:53.876Z,16.57
2022-09-01T02:54:25.587Z,16.52
2022-09-01T02:56:54.714Z,16.41
2022-09-01T02:59:26.334Z,16.56
2022-09-01T03:01:54.332Z,16.46
2022-09-01T03:04:22.592Z,16.27
2022-09-01T03:06:54.888Z,16.12
2022-09-01T03:09:22.706Z,16.25
2022-09-01T03:11:53.481Z,16.33
2022-09-01T03:14:22.653Z,16.36
2022-09-01T03:16:49.867Z,16.37
2022-09-01T03:19:19.062Z,16.40
2022-09-01T03:21:46.585Z,16.49
2022-09-01T03:24:17.808Z,16.53
2022-09-01T03:26:50.021Z,16.29
2022-09-01T03:29:18.594Z,16.43
2022-09-01T03:31:45.813Z,16.51
2022-09-01T03:34:12.812Z,16.54
2022-09-01T03:36:39.945Z,16.51
2022-09-01T03:39:14.638Z,16.56
2022-09-01T03:41:43.514Z,16.51
2022-09-01T03:44:12.044Z,16.26
2022-09-01T03:46:40.419Z,16.31
2022-09-01T03:49:08.015Z,16.24
2022-09-01T03:51:35.360Z,16.24
2022-09-01T03:54:02.251Z,16.18
2022-09-01T03:56:29.962Z,16.08
2022-09-01T03:58:59.928Z,16.04
2022-09-01T04:01:29.614Z,16.15
2022-09-01T04:03:57.138Z,16.11
2022-09-01T04:06:24.681Z,16.13
2022-09-01T04:09:02.631Z,16.19
2022-09-01T04:11:31.000Z,16.12
2022-09-01T04:13:58.402Z,16.10
2022-09-01T04:16:51.281Z,16.05
2022-09-01T04:19:25.771Z,16.15
2022-09-01T04:21:56.170Z,16.13
2022-09-01T04:24:25.060Z,15.98
2022-09-01T04:26:52.707Z,16.07
2022-09-01T04:29:27.536Z,15.96
2022-09-01T04:32:03.657Z,16.14
2022-09-01T04:34:41.662Z,15.92
2022-09-01T04:37:21.117Z,16.06
2022-09-01T04:39:56.571Z,16.05
2022-09-01T04:42:27.365Z,15.89
2022-09-01T04:44:57.296Z,16.03
2022-09-01T04:47:35.167Z,16.10
2022-09-01T04:50:13.624Z,16.16
2022-09-01T04:52:42.327Z,16.09
2022-09-01T04:55:17.340Z,16.27
2022-09-01T04:57:49.407Z,16.21
2022-09-01T05:00:22.600Z,16.18
2022-09-01T05:03:04.712Z,16.21
2022-09-01T05:05:44.538Z,16.15
2022-09-01T05:08:23.567Z,16.37
2022-09-01T05:10:56.792Z,16.31
2022-09-01T05:13:24.502Z,16.24
2022-09-01T05:16:06.033Z,16.26
2022-09-01T05:18:33.962Z,16.38
2022-09-01T05:21:09.892Z,16.40
2022-09-01T05:23:40.367Z,16.27
2022-09-01T05:26:18.119Z,16.37
2022-09-01T05:28:47.616Z,16.41
2022-09-01T05:31:14.868Z,16.38
2022-09-01T05:33:45.861Z,16.42
2022-09-01T05:36:15.762Z,16.53
2022-09-01T05:38:42.646Z,16.44
2022-09-01T05:41:15.061Z,16.44
2022-09-01T05:43:48.963Z,16.31
2022-09-01T05:46:20.656Z,16.62
2022-09-01T05:48:50.537Z,16.57
2022-09-01T05:51:43.191Z,16.64
2022-09-01T05:54:12.016Z,16.53
2022-09-01T05:56:43.580Z,16.71
2022-09-01T05:59:28.597Z,16.72
2022-09-01T06:01:56.182Z,16.78
2022-09-01T06:04:25.513Z,16.87
2022-09-01T06:07:07.067Z,16.78
2022-09-01T06:09:45.423Z,16.95
2022-09-01T06:12:18.433Z,16.99
2022-09-01T06:14:48.297Z,17.07
2022-09-01T06:17:16.764Z,17.10
2022-09-01T06:19:44.427Z,17.16
2022-09-01T06:22:11.391Z,17.15
2022-09-01T06:24:43.892Z,17.28
2022-09-01T06:27:12.546Z,17.27
2022-09-01T06:29:40.841Z,17.34
2022-09-01T06:32:12.474Z,17.27
2022-09-01T06:34:44.621Z,17.37
2022-09-01T06:37:13.314Z,17.32
2022-09-01T06:39:41.558Z,17.33
2022-09-01T06:42:11.205Z,17.47
2022-09-01T06:44:41.986Z,17.60
2022-09-01T06:47:09.142Z,17.61
2022-09-01T06:49:36.608Z,17.67
2022-09-01T06:52:04.882Z,17.58
2022-09-01T06:54:35.007Z,17.72
2022-09-01T06:59:53.907Z,17.61
2022-09-01T07:02:24.447Z,17.74
2022-09-01T07:04:54.154Z,17.77
2022-09-01T07:10:25.384Z,17.85
2022-09-01T07:13:06.132Z,17.80
2022-09-01T07:18:27.395Z,17.93
2022-09-01T07:21:38.893Z,17.89
2022-09-01T07:24:05.873Z,17.82
2022-09-01T07:26:31.417Z,18.08
2022-09-01T07:29:01.921Z,18.16
2022-09-01T07:31:50.543Z,18.22
2022-09-01T07:38:03.396Z,18.41
2022-09-01T07:39:56.282Z,18.48
2022-09-01T07:45:28.801Z,18.53
2022-09-01T07:47:57.829Z,18.50
2022-09-01T07:53:29.711Z,18.68
2022-09-01T07:55:57.864Z,18.72
2022-09-01T07:58:29.898Z,18.80
2022-09-01T08:01:01.212Z,18.71
2022-09-01T08:03:28.673Z,18.89
2022-09-01T08:06:00.847Z,18.98
2022-09-01T08:08:29.209Z,18.93
2022-09-01T08:11:04.370Z,19.02
2022-09-01T08:13:37.300Z,19.09
2022-09-01T08:16:16.319Z,19.17
2022-09-01T08:18:49.567Z,19.16
2022-09-01T08:21:21.921Z,19.23
2022-09-01T08:23:52.746Z,19.23
2022-09-01T08:26:23.188Z,19.30
2022-09-01T08:28:58.203Z,19.33
2022-09-01T08:31:30.749Z,19.32
2022-09-01T08:33:59.023Z,19.38
2022-09-01T08:36:26.242Z,19.38
2022-09-01T08:38:53.826Z,19.35
2022-09-01T08:41:52.997Z,19.47
2022-09-01T08:44:45.998Z,19.52
2022-09-01T08:47:17.612Z,19.52
2022-09-01T08:49:54.698Z,19.55
2022-09-01T08:52:43.815Z,19.58
2022-09-01T08:55:26.016Z,19.79
2022-09-01T08:57:59.119Z,19.83
2022-09-01T09:00:33.355Z,19.84
2022-09-01T09:03:43.328Z,19.88
2022-09-01T09:06:34.996Z,19.81
2022-09-01T09:09:08.252Z,19.97
2022-09-01T09:12:25.222Z,20.02
2022-09-01T09:15:00.596Z,19.95
2022-09-01T09:17:35.806Z,20.06
2022-09-01T09:20:05.725Z,20.05
2022-09-01T09:22:33.945Z,20.06
2022-09-01T09:25:19.414Z,20.10
2022-09-01T09:27:50.347Z,20.17
2022-09-01T09:30:31.299Z,20.11
2022-09-01T09:33:46.708Z,20.28
2022-09-01T09:35:47.724Z,20.25
2022-09-01T09:38:28.596Z,20.41
2022-09-01T09:41:20.312Z,20.38
2022-09-01T09:44:09.173Z,20.45
2022-09-01T09:46:43.697Z,20.54
2022-09-01T09:49:10.681Z,20.61
2022-09-01T09:51:44.860Z,20.55
2022-09-01T09:54:29.838Z,20.62
2022-09-01T09:57:08.883Z,20.70
2022-09-01T09:59:57.717Z,20.68
2022-09-01T10:02:41.833Z,20.60
2022-09-01T10:05:45.515Z,20.77
2022-09-01T10:08:39.779Z,20.84
2022-09-01T10:11:08.114Z,20.89
2022-09-01T10:13:36.698Z,20.82
2022-09-01T10:16:22.302Z,20.90
2022-09-01T10:18:51.830Z,20.89
2022-09-01T10:21:29.607Z,20.98
2022-09-01T10:24:17.131Z,21.01
2022-09-01T10:26:47.970Z,21.15
2022-09-01T10:29:22.377Z,21.08
2022-09-01T10:31:49.297Z,21.27
2022-09-01T10:34:19.634Z,21.40
2022-09-01T10:36:54.936Z,21.42
2022-09-01T10:39:27.711Z,21.46
2022-09-01T10:42:07.431Z,21.64
2022-09-01T10:44:57.556Z,21.68
2022-09-01T10:47:37.843Z,21.85
2022-09-01T10:50:29.503Z,21.78
2022-09-01T10:53:05.853Z,21.87
2022-09-01T10:55:47.866Z,21.92
2022-09-01T11:01:48.836Z,21.99
2022-09-01T11:04:46.549Z,22.09
2022-09-01T11:07:38.887Z,22.21
2022-09-01T11:10:32.511Z,22.13
2022-09-01T11:13:36.386Z,22.11
2022-09-01T11:16:48.021Z,22.10
2022-09-01T11:19:44.575Z,22.01
2022-09-01T11:22:28.651Z,22.10
2022-09-01T11:25:39.282Z,22.32
2022-09-01T11:28:37.852Z,22.31
2022-09-01T11:31:08.463Z,22.25
2022-09-01T11:33:50.734Z,22.34
2022-09-01T11:36:49.954Z,22.54
2022-09-01T11:39:20.942Z,22.58
2022-09-01T11:42:04.471Z,22.58
2022-09-01T11:44:53.434Z,22.53
2022-09-01T11:47:33.190Z,22.63
2022-09-01T11:50:36.095Z,22.51
2022-09-01T11:53:13.682Z,22.53
2022-09-01T11:55:51.781Z,22.55
2022-09-01T11:58:27.817Z,22.70
2022-09-01T12:00:57.927Z,22.89
2022-09-01T12:03:30.199Z,22.81
2022-09-01T12:06:02.786Z,22.95
2022-09-01T12:08:34.750Z,23.01
2022-09-01T12:11:09.837Z,23.00
2022-09-01T12:13:38.370Z,22.89
2022-09-01T12:16:18.931Z,22.95
2022-09-01T12:18:51.374Z,23.02
2022-09-01T12:21:28.098Z,23.16
2022-09-01T12:24:22.636Z,23.33
2022-09-01T12:26:54.602Z,23.41
2022-09-01T12:29:23.179Z,23.56
2022-09-01T12:31:52.766Z,23.70
2022-09-01T12:34:40.853Z,23.68
2022-09-01T12:37:10.847Z,23.65
2022-09-01T12:39:42.533Z,23.75
2022-09-01T12:42:21.449Z,23.78
2022-09-01T12:45:03.332Z,23.87
2022-09-01T12:47:33.445Z,23.80
2022-09-01T12:50:08.504Z,23.77
2022-09-01T12:52:45.184Z,23.73
2022-09-01T12:58:12.730Z,23.83
2022-09-01T13:01:05.674Z,23.74
2022-09-01T13:03:34.813Z,23.84
2022-09-01T13:06:04.552Z,23.89
2022-09-01T13:08:36.030Z,23.84
2022-09-01T13:11:11.531Z,23.91
2022-09-01T13:13:38.838Z,23.93
2022-09-01T13:16:12.678Z,23.81
2022-09-01T13:21:30.748Z,24.02
2022-09-01T13:23:57.955Z,23.83
2022-09-01T13:26:26.232Z,23.88
2022-09-01T13:28:53.920Z,23.83
2022-09-01T13:31:29.538Z,23.92
2022-09-01T13:34:22.670Z,23.99
2022-09-01T13:36:49.341Z,23.90
2022-09-01T13:39:20.241Z,23.94
2022-09-01T13:41:48.838Z,23.92
2022-09-01T13:44:17.364Z,23.91
2022-09-01T13:47:28.260Z,23.89
2022-09-01T13:52:19.720Z,23.89
2022-09-01T13:54:47.594Z,23.82
2022-09-01T13:57:16.322Z,23.87
2022-09-01T13:59:43.700Z,23.88
2022-09-01T14:02:10.983Z,23.86
2022-09-01T14:04:37.989Z,23.90
2022-09-01T14:07:05.082Z,23.74
2022-09-01T14:09:32.258Z,23.72
2022-09-01T14:11:59.391Z,23.75
2022-09-01T14:14:26.629Z,23.75
2022-09-01T14:16:54.000Z,23.76
2022-09-01T14:19:20.918Z,23.73
2022-09-01T14:21:49.609Z,23.60
2022-09-01T14:24:19.801Z,23.71
2022-09-01T14:26:47.796Z,23.69
2022-09-01T14:29:14.825Z,23.80
2022-09-01T14:31:42.221Z,23.87
2022-09-01T14:34:09.819Z,23.84
2022-09-01T14:36:36.666Z,23.76
2022-09-01T14:39:03.658Z,23.59
2022-09-01T14:41:30.680Z,23.54
2022-09-01T14:44:03.247Z,23.83
2022-09-01T14:46:33.777Z,23.74
2022-09-01T14:49:02.443Z,23.59
2022-09-01T14:54:17.828Z,23.81
2022-09-01T14:57:28.375Z,23.84
2022-09-01T14:59:32.925Z,23.70
2022-09-01T15:01:59.871Z,23.60
2022-09-01T15:04:27.807Z,23.94
2022-09-01T15:06:55.064Z,23.86
2022-09-01T15:09:22.729Z,23.95
2022-09-01T15:11:49.625Z,23.94
2022-09-01T15:14:16.634Z,23.99
2022-09-01T15:16:43.506Z,24.08
2022-09-01T15:19:13.085Z,24.33
2022-09-01T15:21:43.376Z,24.14
2022-09-01T15:24:11.155Z,24.01
2022-09-01T15:26:40.729Z,24.02
2022-09-01T15:29:09.893Z,24.14
2022-09-01T15:31:36.764Z,24.18
2022-09-01T15:34:05.411Z,24.05
2022-09-01T15:36:41.963Z,24.17
2022-09-01T15:39:10.569Z,24.23
2022-09-01T15:41:38.437Z,24.21
2022-09-01T15:44:07.430Z,24.24
2022-09-01T15:46:38.856Z,24.33
2022-09-01T15:49:09.863Z,24.25
2022-09-01T15:51:39.993Z,24.26
2022-09-01T15:54:17.044Z,24.19
2022-09-01T15:56:44.987Z,24.32
2022-09-01T15:59:12.281Z,24.31
2022-09-01T16:01:43.934Z,24.37
2022-09-01T16:04:19.055Z,24.44
2022-09-01T16:06:49.423Z,24.28
2022-09-01T16:09:18.405Z,24.38
2022-09-01T16:11:45.392Z,24.22
2022-09-01T16:14:17.643Z,24.29
2022-09-01T16:17:18.407Z,24.32
2022-09-01T16:20:00.972Z,24.41
2022-09-01T16:22:34.900Z,24.40
2022-09-01T16:25:17.844Z,24.99
2022-09-01T16:27:46.298Z,24.78
2022-09-01T16:30:19.791Z,24.61
2022-09-01T16:32:49.534Z,24.50
2022-09-01T16:35:18.984Z,24.50
2022-09-01T16:38:14.030Z,24.36
2022-09-01T16:41:04.243Z,24.31
2022-09-01T16:43:52.385Z,24.18
2022-09-01T16:47:13.227Z,24.25
2022-09-01T16:50:37.476Z,24.13
2022-09-01T16:53:28.376Z,24.15
2022-09-01T16:56:10.706Z,24.05
2022-09-01T16:58:43.244Z,24.12
2022-09-01T17:01:13.207Z,24.10
2022-09-01T17:04:13.513Z,24.00
2022-09-01T17:07:15.942Z,23.92
2022-09-01T17:09:54.169Z,23.85
2022-09-01T17:12:47.862Z,23.77
2022-09-01T17:15:39.414Z,23.73
2022-09-01T17:18:32.770Z,23.59
2022-09-01T17:21:09.861Z,23.36
2022-09-01T17:23:54.681Z,23.46
2022-09-01T17:26:27.181Z,23.43
2022-09-01T17:29:28.509Z,23.36
2022-09-01T17:32:50.899Z,23.30
2022-09-01T17:35:46.264Z,23.17
2022-09-01T17:38:13.941Z,23.18
2022-09-01T17:41:16.083Z,23.04
2022-09-01T17:44:12.585Z,23.00
2022-09-01T17:47:27.589Z,22.95
2022-09-01T17:50:03.965Z,22.89
2022-09-01T17:53:10.271Z,22.72
2022-09-01T17:56:05.229Z,22.76
2022-09-01T17:59:12.049Z,22.70
2022-09-01T18:02:05.200Z,22.70
2022-09-01T18:05:13.004Z,22.63
2022-09-01T18:08:00.878Z,22.49
2022-09-01T18:10:32.202Z,22.55
2022-09-01T18:13:04.697Z,22.47
2022-09-01T18:15:54.357Z,22.35
2022-09-01T18:18:40.625Z,22.33
2022-09-01T18:21:21.438Z,22.15
2022-09-01T18:23:54.446Z,21.94
2022-09-01T18:26:35.278Z,22.02
2022-09-01T18:29:05.086Z,21.90
2022-09-01T18:31:53.355Z,21.82
2022-09-01T18:35:00.237Z,21.71
2022-09-01T18:37:51.624Z,21.60
2022-09-01T18:40:35.742Z,21.54
2022-09-01T18:43:19.023Z,21.43
2022-09-01T18:45:56.645Z,21.43
2022-09-01T18:48:47.465Z,21.43
2022-09-01T18:51:40.637Z,21.33
2022-09-01T18:54:46.350Z,21.25
2022-09-01T18:57:21.078Z,21.18
2022-09-01T19:00:17.019Z,21.00
2022-09-01T19:03:13.969Z,21.06
2022-09-01T19:05:50.997Z,20.96
2022-09-01T19:08:45.369Z,20.88
2022-09-01T19:11:17.886Z,20.84
2022-09-01T19:14:19.089Z,20.85
2022-09-01T19:17:16.627Z,20.74
2022-09-01T19:19:51.519Z,20.44
2022-09-01T19:22:33.615Z,20.58
2022-09-01T19:25:25.931Z,20.53
2022-09-01T19:28:04.951Z,20.44
2022-09-01T19:30:35.380Z,20.23
2022-09-01T19:33:05.696Z,20.07
2022-09-01T19:35:34.756Z,20.23
2022-09-01T19:38:06.671Z,20.23
2022-09-01T19:40:37.800Z,20.11
2022-09-01T19:43:15.687Z,19.97
2022-09-01T19:46:35.290Z,20.06
2022-09-01T19:49:44.194Z,19.89
2022-09-01T19:52:35.717Z,19.83
2022-09-01T19:55:21.088Z,19.90
2022-09-01T19:58:00.239Z,19.71
2022-09-01T20:00:52.518Z,19.74
2022-09-01T20:03:41.534Z,19.74
2022-09-01T20:06:35.431Z,19.75
2022-09-01T20:09:32.071Z,19.75
2022-09-01T20:12:31.982Z,19.64
2022-09-01T20:15:21.818Z,19.55
2022-09-01T20:17:55.581Z,19.44
2022-09-01T20:20:26.997Z,19.62
2022-09-01T20:23:24.621Z,19.46
2022-09-01T20:26:03.902Z,19.56
2022-09-01T20:29:18.693Z,19.49
2022-09-01T20:31:54.261Z,19.32
2022-09-01T20:34:42.776Z,19.33
2022-09-01T20:37:33.023Z,19.38
2022-09-01T20:40:17.591Z,19.27
2022-09-01T20:43:02.462Z,19.29
2022-09-01T20:45:31.907Z,19.21
2022-09-01T20:48:07.578Z,19.24
2022-09-01T20:50:43.414Z,19.28
2022-09-01T20:53:47.734Z,19.29
2022-09-01T20:56:27.844Z,19.13
2022-09-01T20:59:23.210Z,19.24
2022-09-01T21:02:18.702Z,18.67
2022-09-01T21:05:25.027Z,19.08
2022-09-01T21:08:18.190Z,19.09
2022-09-01T21:11:12.681Z,18.77
2022-09-01T21:14:31.462Z,18.94
2022-09-01T21:17:28.146Z,18.88
2022-09-01T21:20:26.194Z,18.84
2022-09-01T21:22:55.520Z,18.81
2022-09-01T21:25:22.919Z,18.79
2022-09-01T21:28:03.109Z,18.70
2022-09-01T21:30:33.970Z,18.76
2022-09-01T21:33:01.518Z,18.77
2022-09-01T21:35:28.677Z,18.74
2022-09-01T21:37:55.522Z,18.42
2022-09-01T21:40:25.316Z,18.52
2022-09-01T21:43:01.131Z,18.32
2022-09-01T21:45:28.241Z,18.43
2022-09-01T21:47:55.599Z,18.41
2022-09-01T21:50:24.899Z,18.49
2022-09-01T21:52:51.992Z,18.29
2022-09-01T21:55:22.901Z,18.51
2022-09-01T21:57:52.194Z,18.45
2022-09-01T22:00:26.433Z,18.39
2022-09-01T22:02:54.419Z,18.57
2022-09-01T22:05:26.180Z,18.29
2022-09-01T22:07:56.529Z,18.35
2022-09-01T22:10:26.493Z,18.48
2022-09-01T22:12:55.248Z,18.26
2022-09-01T22:15:24.986Z,18.37
2022-09-01T22:17:53.761Z,18.18
2022-09-01T22:20:23.338Z,18.25
2022-09-01T22:22:51.006Z,18.04
2022-09-01T22:25:23.710Z,18.11
2022-09-01T22:27:51.636Z,18.20
2022-09-01T22:30:19.235Z,18.11
2022-09-01T22:32:47.812Z,18.01
2022-09-01T22:35:18.333Z,17.88
2022-09-01T22:37:45.951Z,18.05
2022-09-01T22:40:15.500Z,17.92
2022-09-01T22:42:43.072Z,17.93
2022-09-01T22:45:11.767Z,17.92
2022-09-01T22:47:38.790Z,17.98
2022-09-01T22:50:08.852Z,17.92
2022-09-01T22:52:36.747Z,17.82
2022-09-01T22:55:04.736Z,17.81
2022-09-01T22:57:32.893Z,17.89
2022-09-01T23:00:00.806Z,17.49
2022-09-01T23:02:28.392Z,17.64
2022-09-01T23:04:55.328Z,17.68
2022-09-01T23:07:22.202Z,17.59
2022-09-01T23:09:49.126Z,17.41
2022-09-01T23:12:17.128Z,17.55
2022-09-01T23:14:45.047Z,17.41
2022-09-01T23:17:12.946Z,17.53
2022-09-01T23:19:41.797Z,17.50
2022-09-01T23:22:09.693Z,17.38
2022-09-01T23:24:36.540Z,17.42
2022-09-01T23:27:04.532Z,17.10
2022-09-01T23:29:32.341Z,17.34
2022-09-01T23:31:59.207Z,17.22
2022-09-01T23:34:27.171Z,17.41
2022-09-01T23:36:54.048Z,17.32
2022-09-01T23:39:20.881Z,17.15
2022-09-01T23:41:47.705Z,17.25
2022-09-01T23:44:14.525Z,17.35
2022-09-01T23:46:44.562Z,17.25
2022-09-01T23:49:13.335Z,17.24
2022-09-01T23:51:41.042Z,17.25
2022-09-01T23:54:08.088Z,17.23
2022-09-01T23:56:35.306Z,16.99
2022-09-01T23:59:02.253Z,17.08
